West Quincy, Missouri
Current Conditions -  °F | °C
As of 7:15 AM on Sunday 21 Dec 2014 (Local Time) from KHAE Reporting Station
Overcast Overcast  
Wind Chill: 37°   Ceiling: 2300
Heat Index: 41°   Visibility: 10mi
Dew Point: 32°   Wind: 6mph
Humidity: 70%   Direction: 150°SSE
Pressure: 30.14"   Gusts: NA
Location:  39.9055°N, 91.5111°W
Report Text: KHAE 211315Z AUTO 15005KT 10SM OVC023 05/00 A3014 RMK AO2
Loading
Personal Weather Stations






























Interactive Weather Map New forecast layout! Learn more

10-Day Weather Forecast

Advertisements
Track Severe Weather on mobile